createdAt,value
2023-03-19T00:01:11.789Z,100.00
2023-03-19T00:03:40.185Z,100.00
2023-03-19T00:06:10.044Z,100.00
2023-03-19T00:08:38.417Z,100.00
2023-03-19T00:11:08.133Z,98.21
2023-03-19T00:13:36.814Z,95.42
2023-03-19T00:16:05.976Z,96.40
2023-03-19T00:18:34.754Z,97.57
2023-03-19T00:21:03.143Z,98.87
2023-03-19T00:23:33.046Z,99.45
2023-03-19T00:26:01.817Z,100.00
2023-03-19T00:28:30.847Z,100.00
2023-03-19T00:30:59.654Z,100.00
2023-03-19T00:33:28.250Z,100.00
2023-03-19T00:35:57.861Z,100.00
2023-03-19T00:38:26.495Z,100.00
2023-03-19T00:40:56.257Z,100.00
2023-03-19T00:43:24.913Z,100.00
2023-03-19T00:45:53.370Z,100.00
2023-03-19T00:48:22.188Z,100.00
2023-03-19T00:50:50.764Z,100.00
2023-03-19T00:53:19.784Z,100.00
2023-03-19T00:55:48.266Z,100.00
2023-03-19T00:58:17.978Z,100.00
2023-03-19T01:00:46.352Z,100.00
2023-03-19T01:03:15.011Z,100.00
2023-03-19T01:05:43.376Z,100.00
2023-03-19T01:08:11.782Z,100.00
2023-03-19T01:10:41.237Z,100.00
2023-03-19T01:13:09.593Z,100.00
2023-03-19T01:15:40.250Z,100.00
2023-03-19T01:18:10.060Z,100.00
2023-03-19T01:20:40.710Z,100.00
2023-03-19T01:23:09.520Z,100.00
2023-03-19T01:25:40.453Z,100.00
2023-03-19T01:28:09.188Z,100.00
2023-03-19T01:30:40.927Z,100.00
2023-03-19T01:33:09.647Z,100.00
2023-03-19T01:35:38.122Z,100.00
2023-03-19T01:38:07.871Z,100.00
2023-03-19T01:40:36.929Z,100.00
2023-03-19T01:43:19.446Z,100.00
2023-03-19T01:45:52.380Z,100.00
2023-03-19T01:48:28.494Z,100.00
2023-03-19T01:50:58.559Z,100.00
2023-03-19T01:53:31.450Z,100.00
2023-03-19T01:56:05.461Z,100.00
2023-03-19T01:58:34.160Z,100.00
2023-03-19T02:01:04.402Z,100.00
2023-03-19T02:03:34.293Z,100.00
2023-03-19T02:06:03.142Z,100.00
2023-03-19T02:08:33.384Z,100.00
2023-03-19T02:11:02.253Z,100.00
2023-03-19T02:13:30.804Z,100.00
2023-03-19T02:15:59.430Z,100.00
2023-03-19T02:18:29.257Z,100.00
2023-03-19T02:21:04.609Z,100.00
2023-03-19T02:23:41.027Z,100.00
2023-03-19T02:26:13.148Z,100.00
2023-03-19T02:28:44.928Z,100.00
2023-03-19T02:31:14.538Z,100.00
2023-03-19T02:33:42.972Z,100.00
2023-03-19T02:36:16.002Z,100.00
2023-03-19T02:38:47.830Z,100.00
2023-03-19T02:41:18.067Z,100.00
2023-03-19T02:43:46.570Z,100.00
2023-03-19T02:46:17.768Z,100.00
2023-03-19T02:48:46.407Z,100.00
2023-03-19T02:51:14.816Z,100.00
2023-03-19T02:53:43.257Z,100.00
2023-03-19T02:56:11.669Z,100.00
2023-03-19T02:58:41.869Z,100.00
2023-03-19T03:01:10.302Z,100.00
2023-03-19T03:03:39.137Z,100.00
2023-03-19T03:06:08.204Z,100.00
2023-03-19T03:08:36.735Z,100.00
2023-03-19T03:11:05.285Z,100.00
2023-03-19T03:13:33.821Z,100.00
2023-03-19T03:16:03.813Z,100.00
2023-03-19T03:18:32.646Z,100.00
2023-03-19T03:21:01.387Z,100.00
2023-03-19T03:23:29.978Z,100.00
2023-03-19T03:25:59.066Z,100.00
2023-03-19T03:28:28.084Z,100.00
2023-03-19T03:31:00.114Z,100.00
2023-03-19T03:33:30.684Z,100.00
2023-03-19T03:35:59.078Z,100.00
2023-03-19T03:38:27.820Z,100.00
2023-03-19T03:40:56.166Z,100.00
2023-03-19T03:43:24.726Z,100.00
2023-03-19T03:45:53.399Z,100.00
2023-03-19T03:48:21.945Z,100.00
2023-03-19T03:50:52.244Z,100.00
2023-03-19T03:53:20.795Z,100.00
2023-03-19T03:55:52.301Z,100.00
2023-03-19T03:58:20.723Z,100.00
2023-03-19T04:00:49.330Z,100.00
2023-03-19T04:03:18.261Z,100.00
2023-03-19T04:05:46.660Z,100.00
2023-03-19T04:08:16.905Z,100.00
2023-03-19T04:10:45.794Z,100.00
2023-03-19T04:13:14.410Z,100.00
2023-03-19T04:15:44.393Z,100.00
2023-03-19T04:18:12.779Z,100.00
2023-03-19T04:20:41.360Z,100.00
2023-03-19T04:23:09.984Z,100.00
2023-03-19T04:25:41.518Z,100.00
2023-03-19T04:28:12.981Z,100.00
2023-03-19T04:30:43.326Z,100.00
2023-03-19T04:33:13.084Z,100.00
2023-03-19T04:35:41.491Z,100.00
2023-03-19T04:38:10.049Z,100.00
2023-03-19T04:40:38.596Z,100.00
2023-03-19T04:43:08.401Z,100.00
2023-03-19T04:45:36.738Z,100.00
2023-03-19T04:48:05.748Z,100.00
2023-03-19T04:50:34.896Z,100.00
2023-03-19T04:53:03.420Z,100.00
2023-03-19T04:55:32.428Z,100.00
2023-03-19T04:58:01.236Z,100.00
2023-03-19T05:00:31.691Z,100.00
2023-03-19T05:03:00.228Z,100.00
2023-03-19T05:05:28.580Z,100.00
2023-03-19T05:07:57.312Z,100.00
2023-03-19T05:10:25.847Z,100.00
2023-03-19T05:12:54.320Z,100.00
2023-03-19T05:15:22.810Z,100.00
2023-03-19T05:17:52.766Z,100.00
2023-03-19T05:20:21.365Z,100.00
2023-03-19T05:22:49.722Z,100.00
2023-03-19T05:25:19.126Z,100.00
2023-03-19T05:27:47.541Z,100.00
2023-03-19T05:30:18.005Z,100.00
2023-03-19T05:32:46.981Z,100.00
2023-03-19T05:35:17.417Z,100.00
2023-03-19T05:37:46.164Z,100.00
2023-03-19T05:40:14.636Z,100.00
2023-03-19T05:42:43.242Z,100.00
2023-03-19T05:45:12.336Z,100.00
2023-03-19T05:47:42.911Z,100.00
2023-03-19T05:50:12.667Z,100.00
2023-03-19T05:52:42.376Z,100.00
2023-03-19T05:55:11.128Z,100.00
2023-03-19T05:57:39.462Z,100.00
2023-03-19T06:00:09.294Z,100.00
2023-03-19T06:02:38.684Z,100.00
2023-03-19T06:05:08.431Z,100.00
2023-03-19T06:07:37.280Z,100.00
2023-03-19T06:10:08.273Z,100.00
2023-03-19T06:12:36.975Z,100.00
2023-03-19T06:15:06.671Z,100.00
2023-03-19T06:17:35.103Z,100.00
2023-03-19T06:20:04.370Z,100.00
2023-03-19T06:22:32.719Z,100.00
2023-03-19T06:25:01.464Z,100.00
2023-03-19T06:27:31.370Z,100.00
2023-03-19T06:29:59.773Z,100.00
2023-03-19T06:32:28.291Z,100.00
2023-03-19T06:34:56.755Z,100.00
2023-03-19T06:37:25.400Z,100.00
2023-03-19T06:39:54.670Z,100.00
2023-03-19T06:42:23.312Z,100.00
2023-03-19T06:44:53.796Z,100.00
2023-03-19T06:47:22.545Z,100.00
2023-03-19T06:49:51.404Z,100.00
2023-03-19T06:52:19.866Z,100.00
2023-03-19T06:54:48.359Z,100.00
2023-03-19T06:57:16.724Z,100.00
2023-03-19T06:59:45.671Z,100.00
2023-03-19T07:02:15.371Z,100.00
2023-03-19T07:04:44.026Z,100.00
2023-03-19T07:07:12.742Z,100.00
2023-03-19T07:09:41.179Z,100.00
2023-03-19T07:12:10.032Z,100.00
2023-03-19T07:14:38.599Z,100.00
2023-03-19T07:17:10.237Z,100.00
2023-03-19T07:19:40.335Z,100.00
2023-03-19T07:22:08.811Z,100.00
2023-03-19T07:24:37.344Z,100.00
2023-03-19T07:27:05.956Z,100.00
2023-03-19T07:29:34.767Z,100.00
2023-03-19T07:32:03.492Z,100.00
2023-03-19T07:34:31.885Z,100.00
2023-03-19T07:37:01.903Z,100.00
2023-03-19T07:39:30.338Z,100.00
2023-03-19T07:41:58.998Z,100.00
2023-03-19T07:44:27.701Z,100.00
2023-03-19T07:46:56.087Z,100.00
2023-03-19T07:49:25.430Z,100.00
2023-03-19T07:51:53.897Z,100.00
2023-03-19T07:54:24.075Z,100.00
2023-03-19T07:56:52.560Z,100.00
2023-03-19T07:59:21.310Z,100.00
2023-03-19T08:01:49.860Z,100.00
2023-03-19T08:04:18.364Z,100.00
2023-03-19T08:06:47.006Z,100.00
2023-03-19T08:09:15.436Z,100.00
2023-03-19T08:11:45.616Z,100.00
2023-03-19T08:14:13.946Z,100.00
2023-03-19T08:16:45.645Z,100.00
2023-03-19T08:19:14.574Z,100.00
2023-03-19T08:21:43.464Z,100.00
2023-03-19T08:24:26.126Z,100.00
2023-03-19T08:26:56.470Z,100.00
2023-03-19T08:29:26.263Z,100.00
2023-03-19T08:31:56.068Z,100.00
2023-03-19T08:34:24.556Z,100.00
2023-03-19T08:36:52.911Z,100.00
2023-03-19T08:39:22.296Z,100.00
2023-03-19T08:41:51.374Z,100.00
2023-03-19T08:44:21.564Z,100.00
2023-03-19T08:46:50.022Z,100.00
2023-03-19T08:49:18.360Z,100.00
2023-03-19T08:51:46.927Z,100.00
2023-03-19T08:54:15.377Z,100.00
2023-03-19T08:56:43.843Z,100.00
2023-03-19T08:59:12.156Z,100.00
2023-03-19T09:01:41.894Z,100.00
2023-03-19T09:04:10.550Z,100.00
2023-03-19T09:06:39.170Z,99.91
2023-03-19T09:09:07.644Z,98.76
2023-03-19T09:11:36.260Z,98.93
2023-03-19T09:14:04.654Z,97.34
2023-03-19T09:16:33.144Z,96.22
2023-03-19T09:19:03.341Z,96.75
2023-03-19T09:21:32.903Z,95.55
2023-03-19T09:24:01.253Z,96.41
2023-03-19T09:26:29.868Z,93.88
2023-03-19T09:28:58.752Z,92.47
2023-03-19T09:31:29.659Z,89.76
2023-03-19T09:33:58.739Z,90.23
2023-03-19T09:36:28.526Z,90.78
2023-03-19T09:38:57.598Z,88.52
2023-03-19T09:41:33.384Z,89.46
2023-03-19T09:44:03.750Z,88.80
2023-03-19T09:46:39.658Z,83.10
2023-03-19T09:49:18.097Z,85.20
2023-03-19T09:51:53.078Z,81.14
2023-03-19T09:54:30.735Z,79.24
2023-03-19T09:56:59.405Z,79.01
2023-03-19T09:59:29.377Z,78.87
2023-03-19T10:02:19.484Z,78.13
2023-03-19T10:05:01.694Z,76.59
2023-03-19T10:07:49.629Z,76.02
2023-03-19T10:10:32.861Z,76.23
2023-03-19T10:13:14.293Z,76.50
2023-03-19T10:15:45.281Z,75.92
2023-03-19T10:18:18.270Z,74.53
2023-03-19T10:20:53.306Z,74.85
2023-03-19T10:23:38.522Z,72.25
2023-03-19T10:26:12.368Z,71.78
2023-03-19T10:28:43.608Z,71.49
2023-03-19T10:31:27.461Z,70.11
2023-03-19T10:34:13.663Z,69.15
2023-03-19T10:36:42.069Z,67.75
2023-03-19T10:39:14.432Z,66.00
2023-03-19T10:41:51.899Z,65.83
2023-03-19T10:44:29.813Z,66.00
2023-03-19T10:47:00.047Z,67.62
2023-03-19T10:49:28.943Z,68.13
2023-03-19T10:51:59.266Z,68.31
2023-03-19T10:54:30.477Z,67.64
2023-03-19T10:57:01.255Z,67.54
2023-03-19T10:59:34.380Z,67.98
2023-03-19T11:02:14.909Z,67.35
2023-03-19T11:04:43.955Z,65.71
2023-03-19T11:07:14.566Z,63.95
2023-03-19T11:09:47.096Z,62.44
2023-03-19T11:12:20.666Z,59.70
2023-03-19T11:14:51.125Z,56.95
2023-03-19T11:17:25.642Z,57.09
2023-03-19T11:19:56.154Z,55.79
2023-03-19T11:22:26.955Z,45.55
2023-03-19T11:25:00.985Z,38.71
2023-03-19T11:27:32.218Z,40.83
2023-03-19T11:30:01.118Z,45.28
2023-03-19T11:32:58.105Z,48.11
2023-03-19T11:35:30.269Z,44.47
2023-03-19T11:38:01.673Z,44.29
2023-03-19T11:40:43.782Z,46.50
2023-03-19T11:43:45.468Z,49.88
2023-03-19T11:46:28.705Z,54.09
2023-03-19T11:49:27.253Z,56.75
2023-03-19T11:52:04.149Z,61.33
2023-03-19T11:54:40.713Z,64.66
2023-03-19T11:57:17.278Z,65.62
2023-03-19T11:59:59.309Z,68.62
2023-03-19T12:02:57.058Z,70.03
2023-03-19T12:05:32.999Z,72.33
2023-03-19T12:08:20.553Z,73.23
2023-03-19T12:11:02.966Z,74.38
2023-03-19T12:13:43.372Z,75.96
2023-03-19T12:16:21.787Z,77.24
2023-03-19T12:19:21.730Z,77.83
2023-03-19T12:21:58.369Z,79.91
2023-03-19T12:24:40.605Z,80.73
2023-03-19T12:27:23.013Z,82.58
2023-03-19T12:30:00.974Z,85.40
2023-03-19T12:32:54.342Z,89.71
2023-03-19T12:35:30.754Z,92.38
2023-03-19T12:38:04.162Z,94.01
2023-03-19T12:40:38.426Z,94.71
2023-03-19T12:43:25.441Z,95.28
2023-03-19T12:46:00.996Z,92.48
2023-03-19T12:48:33.112Z,91.03
2023-03-19T12:51:06.542Z,77.69
2023-03-19T12:53:45.565Z,66.00
2023-03-19T12:56:20.231Z,57.19
2023-03-19T12:58:58.126Z,52.08
2023-03-19T13:01:32.521Z,50.05
2023-03-19T13:04:07.592Z,46.73
2023-03-19T13:06:38.649Z,47.12
2023-03-19T13:09:15.596Z,44.36
2023-03-19T13:11:49.561Z,46.03
2023-03-19T13:14:23.062Z,48.35
2023-03-19T13:17:00.734Z,52.75
2023-03-19T13:19:33.248Z,52.49
2023-03-19T13:22:07.477Z,54.61
2023-03-19T13:24:39.468Z,58.61
2023-03-19T13:27:13.034Z,62.10
2023-03-19T13:30:03.921Z,64.78
2023-03-19T13:32:41.446Z,66.02
2023-03-19T13:35:25.686Z,66.32
2023-03-19T13:37:59.674Z,66.83
2023-03-19T13:40:46.183Z,66.61
2023-03-19T13:43:41.655Z,66.94
2023-03-19T13:46:46.962Z,68.83
2023-03-19T13:49:32.033Z,69.52
2023-03-19T13:52:43.638Z,69.08
2023-03-19T13:55:32.724Z,69.34
2023-03-19T13:58:37.746Z,68.78
2023-03-19T14:01:07.323Z,67.77
2023-03-19T14:03:37.956Z,66.26
2023-03-19T14:06:39.755Z,66.99
2023-03-19T14:09:49.495Z,66.53
2023-03-19T14:12:32.121Z,65.12
2023-03-19T14:15:04.771Z,65.88
2023-03-19T14:17:35.513Z,66.02
2023-03-19T14:20:32.923Z,65.14
2023-03-19T14:23:23.869Z,63.73
2023-03-19T14:26:02.641Z,62.82
2023-03-19T14:28:38.425Z,63.65
2023-03-19T14:31:08.134Z,63.28
2023-03-19T14:33:45.345Z,63.70
2023-03-19T14:36:16.709Z,59.10
2023-03-19T14:38:52.225Z,55.43
2023-03-19T14:41:22.942Z,51.28
2023-03-19T14:44:10.074Z,49.07
2023-03-19T14:46:54.598Z,51.10
2023-03-19T14:50:07.852Z,51.65
2023-03-19T14:52:39.855Z,48.50
2023-03-19T14:55:14.330Z,48.02
2023-03-19T14:57:43.423Z,47.70
2023-03-19T15:00:18.292Z,46.77
2023-03-19T15:02:48.897Z,51.52
2023-03-19T15:05:25.109Z,53.79
2023-03-19T15:07:57.834Z,54.40
2023-03-19T15:10:29.952Z,54.63
2023-03-19T15:13:23.573Z,56.21
2023-03-19T15:16:11.276Z,57.48
2023-03-19T15:18:39.920Z,56.74
2023-03-19T15:21:10.161Z,56.55
2023-03-19T15:23:40.998Z,57.19
2023-03-19T15:26:11.857Z,57.80
2023-03-19T15:28:49.464Z,58.63
2023-03-19T15:31:32.029Z,58.88
2023-03-19T15:34:19.370Z,60.41
2023-03-19T15:36:52.788Z,61.58
2023-03-19T15:39:25.895Z,61.26
2023-03-19T15:41:57.357Z,62.17
2023-03-19T15:44:34.916Z,62.64
2023-03-19T15:47:07.828Z,62.84
2023-03-19T15:49:40.691Z,62.79
2023-03-19T15:52:14.022Z,63.69
2023-03-19T15:54:43.788Z,63.97
2023-03-19T15:57:15.988Z,63.69
2023-03-19T15:59:46.433Z,64.05
2023-03-19T16:02:23.158Z,64.25
2023-03-19T16:05:18.313Z,64.01
2023-03-19T16:07:44.381Z,64.71
2023-03-19T16:10:35.176Z,65.62
2023-03-19T16:13:23.261Z,65.25
2023-03-19T16:15:57.980Z,65.47
2023-03-19T16:18:28.567Z,65.86
2023-03-19T16:21:04.093Z,65.49
2023-03-19T16:23:35.622Z,65.35
2023-03-19T16:26:15.070Z,65.78
2023-03-19T16:28:49.051Z,65.82
2023-03-19T16:31:23.220Z,65.83
2023-03-19T16:33:53.375Z,65.55
2023-03-19T16:36:22.650Z,65.87
2023-03-19T16:38:57.557Z,65.83
2023-03-19T16:41:33.710Z,66.10
2023-03-19T16:44:14.230Z,66.32
2023-03-19T16:46:42.874Z,66.26
2023-03-19T16:49:11.331Z,65.34
2023-03-19T16:51:40.302Z,65.74
2023-03-19T16:54:10.739Z,66.04
2023-03-19T16:56:39.435Z,66.62
2023-03-19T16:59:18.565Z,67.56
2023-03-19T17:01:47.047Z,68.31
2023-03-19T17:04:17.670Z,69.24
2023-03-19T17:06:46.444Z,69.66
2023-03-19T17:09:14.804Z,69.70
2023-03-19T17:11:44.382Z,69.76
2023-03-19T17:14:20.946Z,69.79
2023-03-19T17:16:50.780Z,70.12
2023-03-19T17:19:22.160Z,70.25
2023-03-19T17:21:53.591Z,70.65
2023-03-19T17:24:24.896Z,71.20
2023-03-19T17:26:54.852Z,69.88
2023-03-19T17:29:26.099Z,69.53
2023-03-19T17:31:57.188Z,70.00
2023-03-19T17:34:27.792Z,71.21
2023-03-19T17:36:59.584Z,73.04
2023-03-19T17:39:31.402Z,73.93
2023-03-19T17:42:00.354Z,75.54
2023-03-19T17:44:30.064Z,77.08
2023-03-19T17:46:58.599Z,77.63
2023-03-19T17:49:29.171Z,78.13
2023-03-19T17:51:57.756Z,78.73
2023-03-19T17:54:27.165Z,79.21
2023-03-19T17:56:56.157Z,79.68
2023-03-19T17:59:24.588Z,80.29
2023-03-19T18:01:54.330Z,80.67
2023-03-19T18:04:23.534Z,81.24
2023-03-19T18:06:55.121Z,81.42
2023-03-19T18:09:25.671Z,81.78
2023-03-19T18:11:54.213Z,82.05
2023-03-19T18:14:22.638Z,82.18
2023-03-19T18:16:51.470Z,82.37
2023-03-19T18:19:25.974Z,82.81
2023-03-19T18:21:54.409Z,83.08
2023-03-19T18:24:22.831Z,83.42
2023-03-19T18:26:51.179Z,83.65
2023-03-19T18:29:19.569Z,83.50
2023-03-19T18:31:51.190Z,83.49
2023-03-19T18:34:21.118Z,83.20
2023-03-19T18:36:49.593Z,83.50
2023-03-19T18:39:18.133Z,83.43
2023-03-19T18:41:46.526Z,83.17
2023-03-19T18:44:14.967Z,82.86
2023-03-19T18:46:43.506Z,82.77
2023-03-19T18:49:22.444Z,82.46
2023-03-19T18:52:02.293Z,81.89
2023-03-19T18:54:32.804Z,82.16
2023-03-19T18:57:02.310Z,82.01
2023-03-19T18:59:32.653Z,81.85
2023-03-19T19:02:02.906Z,81.23
2023-03-19T19:04:32.752Z,80.90
2023-03-19T19:07:01.682Z,80.89
2023-03-19T19:09:30.099Z,80.41
2023-03-19T19:12:01.023Z,80.46
2023-03-19T19:14:29.627Z,80.35
2023-03-19T19:16:58.269Z,78.45
2023-03-19T19:19:28.523Z,78.42
2023-03-19T19:21:58.392Z,78.10
2023-03-19T19:24:26.963Z,77.54
2023-03-19T19:26:56.772Z,77.51
2023-03-19T19:29:28.293Z,77.43
2023-03-19T19:31:57.043Z,77.75
2023-03-19T19:34:25.453Z,78.22
2023-03-19T19:36:57.475Z,79.11
2023-03-19T19:39:27.888Z,79.58
2023-03-19T19:41:56.913Z,79.74
2023-03-19T19:44:25.330Z,80.76
2023-03-19T19:46:54.516Z,81.06
2023-03-19T19:49:23.138Z,81.63
2023-03-19T19:51:51.739Z,82.21
2023-03-19T19:54:21.332Z,82.60
2023-03-19T19:56:52.125Z,82.50
2023-03-19T19:59:26.001Z,83.72
2023-03-19T20:01:54.645Z,82.85
2023-03-19T20:04:23.060Z,83.18
2023-03-19T20:06:52.068Z,83.40
2023-03-19T20:09:22.012Z,83.47
2023-03-19T20:11:51.971Z,83.64
2023-03-19T20:14:20.432Z,83.79
2023-03-19T20:16:49.025Z,83.56
2023-03-19T20:19:20.164Z,84.06
2023-03-19T20:21:48.732Z,83.78
2023-03-19T20:24:17.098Z,83.05
2023-03-19T20:26:45.862Z,83.55
2023-03-19T20:29:17.195Z,84.04
2023-03-19T20:31:47.588Z,84.21
2023-03-19T20:34:28.709Z,84.16
2023-03-19T20:37:05.252Z,84.81
2023-03-19T20:39:33.671Z,84.85
2023-03-19T20:42:02.148Z,84.85
2023-03-19T20:44:32.273Z,85.31
2023-03-19T20:47:00.739Z,85.31
2023-03-19T20:49:30.875Z,85.63
2023-03-19T20:51:59.454Z,85.96
2023-03-19T20:54:27.882Z,86.36
2023-03-19T20:56:56.505Z,86.86
2023-03-19T20:59:26.318Z,87.58
2023-03-19T21:01:56.592Z,88.13
2023-03-19T21:04:25.409Z,88.38
2023-03-19T21:06:54.491Z,88.31
2023-03-19T21:09:25.906Z,89.07
2023-03-19T21:11:54.426Z,89.49
2023-03-19T21:14:26.638Z,89.92
2023-03-19T21:16:56.607Z,90.45
2023-03-19T21:19:25.748Z,90.63
2023-03-19T21:21:54.733Z,90.83
2023-03-19T21:24:24.626Z,90.71
2023-03-19T21:26:56.175Z,89.65
2023-03-19T21:29:30.987Z,89.18
2023-03-19T21:32:00.860Z,89.21
2023-03-19T21:34:29.357Z,89.21
2023-03-19T21:36:57.971Z,88.93
2023-03-19T21:39:26.442Z,89.24
2023-03-19T21:41:57.231Z,89.43
2023-03-19T21:44:29.607Z,90.28
2023-03-19T21:46:58.499Z,90.86
2023-03-19T21:49:30.004Z,91.14
2023-03-19T21:51:58.683Z,91.62
2023-03-19T21:54:27.347Z,91.19
2023-03-19T21:56:55.820Z,90.61
2023-03-19T21:59:28.218Z,89.90
2023-03-19T22:01:57.756Z,89.39
2023-03-19T22:04:26.375Z,89.20
2023-03-19T22:06:56.480Z,88.62
2023-03-19T22:09:24.901Z,88.04
2023-03-19T22:11:53.661Z,87.95
2023-03-19T22:14:27.136Z,88.15
2023-03-19T22:16:57.167Z,88.07
2023-03-19T22:19:27.498Z,88.55
2023-03-19T22:21:57.349Z,88.92
2023-03-19T22:24:25.871Z,88.71
2023-03-19T22:26:57.647Z,88.51
2023-03-19T22:29:26.566Z,88.41
2023-03-19T22:31:58.463Z,88.37
2023-03-19T22:34:28.597Z,87.98
2023-03-19T22:36:58.388Z,88.57
2023-03-19T22:39:26.816Z,88.57
2023-03-19T22:41:55.513Z,88.86
2023-03-19T22:44:27.523Z,88.78
2023-03-19T22:46:57.429Z,88.77
2023-03-19T22:49:26.335Z,88.54
2023-03-19T22:51:55.621Z,88.78
2023-03-19T22:54:25.594Z,88.51
2023-03-19T22:56:53.979Z,88.40
2023-03-19T22:59:23.046Z,88.36
2023-03-19T23:01:51.611Z,88.49
2023-03-19T23:04:22.557Z,88.33
2023-03-19T23:06:52.237Z,88.61
2023-03-19T23:09:22.960Z,88.33
2023-03-19T23:11:53.576Z,88.26
2023-03-19T23:14:29.525Z,88.16
2023-03-19T23:17:00.739Z,88.07
2023-03-19T23:19:31.497Z,88.46
2023-03-19T23:22:02.378Z,88.14
2023-03-19T23:24:31.323Z,88.22
2023-03-19T23:27:02.250Z,88.88
2023-03-19T23:29:32.996Z,88.92
2023-03-19T23:32:01.649Z,88.40
2023-03-19T23:34:30.447Z,87.93
2023-03-19T23:36:59.823Z,87.33
2023-03-19T23:39:28.799Z,86.41
2023-03-19T23:41:59.266Z,85.92
2023-03-19T23:44:29.496Z,86.22
2023-03-19T23:47:02.866Z,86.63
2023-03-19T23:49:33.504Z,86.61
2023-03-19T23:52:04.383Z,85.68
2023-03-19T23:54:34.473Z,86.10
2023-03-19T23:57:06.689Z,86.53
2023-03-19T23:59:39.447Z,86.50
